Time;durP1;ratioP1;P1;durP2;ratioP2;P2;SDS_P1;SDS_P2;PMS_P1;PMS_P2;Temp;Humidity;BMP_temperature;BMP_pressure;BME280_temperature;BME280_humidity;BME280_pressure;Samples;Min_cycle;Max_cycle;Signal;HPM_P1;HPM_P2
2023/05/14 03:01:08;;;;;;;;;;;19.60;62.70;;;;;;5652378;23;47112;-59
2023/05/14 03:03:34;;;;;;;;;;;19.60;62.70;;;;;;4971946;28;45473;-60
2023/05/14 03:06:00;;;;;;;;;;;19.60;62.70;;;;;;4972154;28;45140;-59
2023/05/14 03:08:25;;;;;;;;;;;19.60;62.70;;;;;;4982643;28;45074;-59
2023/05/14 03:10:51;;;;;;;;;;;19.60;62.70;;;;;;4990310;28;45574;-59
2023/05/14 03:13:18;;;;;;;;;;;19.60;62.80;;;;;;4953762;28;44990;-58
2023/05/14 03:15:44;;;;;;;;;;;19.60;62.70;;;;;;4971898;28;44653;-58
2023/05/14 03:18:09;;;;;;;;;;;19.60;62.70;;;;;;4978389;28;45240;-58
2023/05/14 03:20:35;;;;;;;;;;;19.60;62.70;;;;;;4990889;23;46703;-60
2023/05/14 03:23:00;;;;;;;;;;;19.60;62.70;;;;;;4951898;28;44991;-58
2023/05/14 03:25:26;;;;;;;;;;;19.60;62.70;;;;;;4964818;28;45271;-59
2023/05/14 03:27:52;;;;;;;;;;;19.60;62.90;;;;;;4957096;28;45289;-58
2023/05/14 03:30:17;;;;;;;;;;;19.50;62.80;;;;;;4966725;28;46091;-58
2023/05/14 03:32:43;;;;;;;;;;;19.60;62.90;;;;;;4949379;28;45478;-59
2023/05/14 03:35:08;;;;;;;;;;;19.60;62.80;;;;;;4934529;28;45499;-60
2023/05/14 03:37:34;;;;;;;;;;;19.50;62.70;;;;;;4924554;28;45333;-58
2023/05/14 03:39:59;;;;;;;;;;;19.50;62.70;;;;;;4928926;28;46003;-59
2023/05/14 03:42:25;;;;;;;;;;;19.50;62.80;;;;;;4951933;28;45812;-58
2023/05/14 03:44:51;;;;;;;;;;;19.50;62.80;;;;;;4952369;28;45640;-58
2023/05/14 03:47:16;;;;;;;;;;;19.60;62.80;;;;;;4942274;28;45271;-57
2023/05/14 03:49:42;;;;;;;;;;;19.50;62.80;;;;;;4952673;28;46173;-59
2023/05/14 03:52:07;;;;;;;;;;;19.50;62.80;;;;;;4951417;28;45826;-59
2023/05/14 03:54:33;;;;;;;;;;;19.50;62.80;;;;;;4943043;28;45762;-60
2023/05/14 03:56:59;;;;;;;;;;;19.50;62.70;;;;;;4912584;28;45201;-58
2023/05/14 03:59:24;;;;;;;;;;;19.50;62.70;;;;;;4938120;28;46228;-60
2023/05/14 04:01:50;;;;;;;;;;;19.50;62.90;;;;;;4940055;28;45251;-58
2023/05/14 04:04:15;;;;;;;;;;;19.50;62.80;;;;;;4962610;28;45539;-58
2023/05/14 04:06:40;;;;;;;;;;;19.50;62.80;;;;;;4953547;28;45575;-59
2023/05/14 04:09:06;;;;;;;;;;;19.50;62.80;;;;;;4959082;28;47013;-58
2023/05/14 04:11:31;;;;;;;;;;;19.50;62.80;;;;;;4942580;28;45213;-58
2023/05/14 04:13:57;;;;;;;;;;;19.50;62.80;;;;;;4951595;28;45782;-59
2023/05/14 04:16:22;;;;;;;;;;;19.50;62.80;;;;;;4941956;28;45210;-58
2023/05/14 04:18:48;;;;;;;;;;;19.50;62.80;;;;;;4955223;28;45337;-58
2023/05/14 04:21:13;;;;;;;;;;;19.50;62.90;;;;;;4948241;28;45312;-59
2023/05/14 04:23:39;;;;;;;;;;;19.50;62.90;;;;;;4932220;28;45452;-59
2023/05/14 04:26:05;;;;;;;;;;;19.50;62.90;;;;;;4947368;28;46340;-59
2023/05/14 04:28:30;;;;;;;;;;;19.50;62.80;;;;;;4963140;28;46255;-59
2023/05/14 04:30:56;;;;;;;;;;;19.50;62.80;;;;;;4949578;28;45405;-59
2023/05/14 04:33:22;;;;;;;;;;;19.50;62.90;;;;;;4949117;28;45242;-59
2023/05/14 04:35:47;;;;;;;;;;;19.50;62.90;;;;;;4931715;28;45187;-59
2023/05/14 04:38:13;;;;;;;;;;;19.50;62.80;;;;;;4949130;28;45961;-58
2023/05/14 04:40:40;;;;;;;;;;;19.50;62.80;;;;;;4940166;28;45462;-59
2023/05/14 04:43:06;;;;;;;;;;;19.50;62.80;;;;;;4929335;28;45473;-57
2023/05/14 04:45:32;;;;;;;;;;;19.50;62.80;;;;;;4940038;28;45306;-58
2023/05/14 04:47:57;;;;;;;;;;;19.50;62.90;;;;;;4941658;28;46412;-61
2023/05/14 04:50:23;;;;;;;;;;;19.50;62.90;;;;;;4938342;28;46240;-59
2023/05/14 04:52:48;;;;;;;;;;;19.40;62.90;;;;;;4944762;28;45659;-58
2023/05/14 04:55:14;;;;;;;;;;;19.50;63.00;;;;;;4936530;28;45305;-58
2023/05/14 04:57:39;;;;;;;;;;;19.50;62.90;;;;;;4939704;28;46092;-59
2023/05/14 05:00:08;;;;;;;;;;;19.50;63.00;;;;;;4941302;28;45361;-59
2023/05/14 05:02:34;;;;;;;;;;;19.50;63.00;;;;;;4937767;28;46622;-58
2023/05/14 05:05:00;;;;;;;;;;;19.50;62.90;;;;;;4940348;28;45798;-59
2023/05/14 05:07:25;;;;;;;;;;;19.50;63.00;;;;;;4922262;28;47221;-59
2023/05/14 05:09:51;;;;;;;;;;;19.50;62.90;;;;;;4944818;28;45287;-59
2023/05/14 05:12:16;;;;;;;;;;;19.50;62.80;;;;;;4930948;28;45734;-60
2023/05/14 05:14:42;;;;;;;;;;;19.50;62.80;;;;;;4943478;28;45669;-59
2023/05/14 05:17:07;;;;;;;;;;;19.50;62.60;;;;;;4932230;28;47300;-59
2023/05/14 05:19:33;;;;;;;;;;;19.60;62.40;;;;;;4939306;28;46697;-59
2023/05/14 05:21:58;;;;;;;;;;;19.60;62.30;;;;;;4936400;28;45152;-58
2023/05/14 05:24:24;;;;;;;;;;;19.60;62.20;;;;;;4923389;28;45841;-60
2023/05/14 05:26:50;;;;;;;;;;;19.70;62.30;;;;;;4936943;28;46059;-59
2023/05/14 05:29:16;;;;;;;;;;;19.70;62.20;;;;;;4922646;28;44814;-58
2023/05/14 05:31:41;;;;;;;;;;;19.70;62.10;;;;;;4928922;28;46153;-58
2023/05/14 05:34:07;;;;;;;;;;;19.70;62.20;;;;;;4923739;28;46400;-60
2023/05/14 05:36:33;;;;;;;;;;;19.60;62.30;;;;;;4934075;28;45980;-59
2023/05/14 05:38:58;;;;;;;;;;;19.60;62.30;;;;;;4943021;28;46170;-60
2023/05/14 05:41:24;;;;;;;;;;;19.60;62.40;;;;;;4937528;28;45490;-59
2023/05/14 05:43:49;;;;;;;;;;;19.60;62.50;;;;;;4945566;28;45576;-59
2023/05/14 05:46:15;;;;;;;;;;;19.60;62.50;;;;;;4937315;28;46011;-60
2023/05/14 05:48:40;;;;;;;;;;;19.60;62.60;;;;;;4944988;28;45360;-58
2023/05/14 05:51:06;;;;;;;;;;;19.60;62.70;;;;;;4938157;28;46407;-60
2023/05/14 05:53:31;;;;;;;;;;;19.60;62.80;;;;;;4944306;28;45223;-58
2023/05/14 05:55:57;;;;;;;;;;;19.50;62.80;;;;;;4920388;28;46819;-58
2023/05/14 05:58:22;;;;;;;;;;;19.50;62.80;;;;;;4943802;28;45445;-59
2023/05/14 06:00:47;;;;;;;;;;;19.60;62.80;;;;;;4938130;28;45650;-59
2023/05/14 06:03:13;;;;;;;;;;;19.60;62.70;;;;;;4939054;28;45333;-57
2023/05/14 06:05:38;;;;;;;;;;;19.70;62.50;;;;;;4938836;28;46128;-60
2023/05/14 06:08:04;;;;;;;;;;;19.70;62.40;;;;;;4943998;28;45387;-58
2023/05/14 06:10:30;;;;;;;;;;;19.70;62.30;;;;;;4921605;28;45660;-59
2023/05/14 06:12:55;;;;;;;;;;;19.70;62.20;;;;;;4927504;28;46144;-58
2023/05/14 06:15:21;;;;;;;;;;;19.70;62.10;;;;;;4937922;28;45442;-59
2023/05/14 06:17:46;;;;;;;;;;;19.80;62.30;;;;;;4914041;28;45204;-57
2023/05/14 06:20:12;;;;;;;;;;;19.80;62.00;;;;;;4939230;28;46019;-61
2023/05/14 06:22:37;;;;;;;;;;;19.80;62.00;;;;;;4946077;28;45349;-60
2023/05/14 06:25:03;;;;;;;;;;;19.90;62.00;;;;;;4941783;28;45406;-61
2023/05/14 06:27:28;;;;;;;;;;;19.90;61.90;;;;;;4940964;28;45359;-58
2023/05/14 06:29:54;;;;;;;;;;;19.90;61.90;;;;;;4924766;28;44761;-58
2023/05/14 06:32:19;;;;;;;;;;;19.90;61.80;;;;;;4933582;28;44741;-58
2023/05/14 06:34:45;;;;;;;;;;;19.90;61.80;;;;;;4941682;28;45741;-59
2023/05/14 06:37:11;;;;;;;;;;;20.00;61.70;;;;;;4937698;28;46363;-59
2023/05/14 06:39:36;;;;;;;;;;;20.00;61.70;;;;;;4942916;28;45386;-60
2023/05/14 06:42:02;;;;;;;;;;;20.00;61.70;;;;;;4920980;28;46178;-59
2023/05/14 06:44:27;;;;;;;;;;;20.00;61.60;;;;;;4948075;28;46799;-58
2023/05/14 06:46:53;;;;;;;;;;;20.00;61.60;;;;;;4939592;28;45801;-59
2023/05/14 06:49:18;;;;;;;;;;;20.10;61.60;;;;;;4946927;28;45338;-60
2023/05/14 06:51:44;;;;;;;;;;;20.10;61.50;;;;;;4937893;28;46432;-61
2023/05/14 06:54:10;;;;;;;;;;;20.10;61.30;;;;;;4944568;28;46142;-59
2023/05/14 06:56:35;;;;;;;;;;;20.10;61.30;;;;;;4943253;28;45590;-59
2023/05/14 06:59:01;;;;;;;;;;;20.10;61.30;;;;;;4948647;28;45161;-59
2023/05/14 07:01:26;;;;;;;;;;;20.10;61.40;;;;;;4938027;28;46220;-58
2023/05/14 07:03:52;;;;;;;;;;;20.20;61.40;;;;;;4946104;28;47222;-59
2023/05/14 07:06:17;;;;;;;;;;;20.20;61.30;;;;;;4940040;28;46451;-59
2023/05/14 07:08:45;;;;;;;;;;;20.20;61.20;;;;;;4944704;28;45714;-58
2023/05/14 07:11:12;;;;;;;;;;;20.20;61.20;;;;;;4926028;28;45432;-60
2023/05/14 07:13:38;;;;;;;;;;;20.20;61.10;;;;;;4946191;28;45331;-60
2023/05/14 07:16:03;;;;;;;;;;;20.30;61.00;;;;;;4938557;28;45360;-59
2023/05/14 07:18:29;;;;;;;;;;;20.30;61.00;;;;;;4944004;28;45577;-59
2023/05/14 07:20:54;;;;;;;;;;;20.30;61.00;;;;;;4941945;28;45756;-58
2023/05/14 07:23:20;;;;;;;;;;;20.30;61.00;;;;;;4946769;28;45699;-56
2023/05/14 07:25:45;;;;;;;;;;;20.30;60.90;;;;;;4942246;28;46697;-58
2023/05/14 07:28:11;;;;;;;;;;;20.30;60.80;;;;;;4949152;28;44693;-58
2023/05/14 07:30:36;;;;;;;;;;;20.30;60.90;;;;;;4919689;28;45302;-60
2023/05/14 07:33:02;;;;;;;;;;;20.40;60.90;;;;;;4944285;28;46153;-59
2023/05/14 07:35:27;;;;;;;;;;;20.40;60.90;;;;;;4939735;28;45221;-57
2023/05/14 07:37:53;;;;;;;;;;;20.40;60.90;;;;;;4925318;28;46196;-59
2023/05/14 07:40:18;;;;;;;;;;;20.30;61.70;;;;;;4926402;28;47174;-61
2023/05/14 07:42:44;;;;;;;;;;;20.30;61.00;;;;;;4929078;28;45985;-59
2023/05/14 07:45:09;;;;;;;;;;;20.30;60.90;;;;;;4942227;28;45074;-59
2023/05/14 07:47:35;;;;;;;;;;;20.30;60.90;;;;;;4924835;28;45235;-60
2023/05/14 07:50:00;;;;;;;;;;;20.30;61.00;;;;;;4947720;28;45341;-59
2023/05/14 07:52:26;;;;;;;;;;;20.30;61.00;;;;;;4939924;28;45278;-59
2023/05/14 07:54:51;;;;;;;;;;;20.30;61.00;;;;;;4944018;28;45689;-59
2023/05/14 07:57:17;;;;;;;;;;;20.30;60.90;;;;;;4914246;28;45273;-60
2023/05/14 07:59:43;;;;;;;;;;;20.40;61.00;;;;;;4947953;28;45495;-59
2023/05/14 08:02:11;;;;;;;;;;;20.30;61.00;;;;;;4919923;28;46140;-60
2023/05/14 08:04:37;;;;;;;;;;;20.30;61.00;;;;;;4945479;28;45302;-60
2023/05/14 08:07:03;;;;;;;;;;;20.30;61.00;;;;;;4922468;28;45583;-59
2023/05/14 08:09:28;;;;;;;;;;;20.30;61.00;;;;;;4946003;28;45674;-59
2023/05/14 08:11:54;;;;;;;;;;;20.40;61.10;;;;;;4943203;28;46035;-60
2023/05/14 08:14:20;;;;;;;;;;;20.40;61.20;;;;;;4947272;28;45476;-60
2023/05/14 08:16:46;;;;;;;;;;;20.30;61.10;;;;;;4938609;28;46267;-58
2023/05/14 08:19:11;;;;;;;;;;;20.30;61.10;;;;;;4949465;28;45600;-59
2023/05/14 08:21:37;;;;;;;;;;;20.30;61.30;;;;;;4942479;28;45809;-59
2023/05/14 08:24:02;;;;;;;;;;;20.30;61.10;;;;;;4940649;28;46630;-60
2023/05/14 08:26:28;;;;;;;;;;;20.30;61.00;;;;;;4918382;28;46049;-58
2023/05/14 08:28:54;;;;;;;;;;;20.30;61.10;;;;;;4946630;28;44832;-60
2023/05/14 08:31:19;;;;;;;;;;;20.30;61.00;;;;;;4920369;28;46346;-59
2023/05/14 08:33:45;;;;;;;;;;;20.30;61.00;;;;;;4945488;28;45281;-60
2023/05/14 08:36:10;;;;;;;;;;;20.30;61.00;;;;;;4938451;28;45323;-59
2023/05/14 08:38:36;;;;;;;;;;;20.30;61.00;;;;;;4944762;28;45534;-60
2023/05/14 08:41:01;;;;;;;;;;;20.30;61.10;;;;;;4942703;28;46198;-60
2023/05/14 08:43:33;;;;;;;;;;;20.30;61.00;;;;;;4927955;28;45276;-59
2023/05/14 08:46:01;;;;;;;;;;;20.30;61.00;;;;;;4918287;28;45724;-59
2023/05/14 08:48:27;;;;;;;;;;;20.30;61.20;;;;;;4924839;28;45544;-59
2023/05/14 08:50:53;;;;;;;;;;;20.30;61.00;;;;;;4938146;28;45841;-60
2023/05/14 08:53:18;;;;;;;;;;;20.30;61.10;;;;;;4942288;28;46126;-57
2023/05/14 08:55:44;;;;;;;;;;;20.30;61.20;;;;;;4937361;28;45586;-60
2023/05/14 08:58:09;;;;;;;;;;;20.30;61.10;;;;;;4927504;28;45606;-58
2023/05/14 09:00:35;;;;;;;;;;;20.30;61.10;;;;;;4933421;28;46381;-59
2023/05/14 09:03:01;;;;;;;;;;;20.30;61.10;;;;;;4920909;28;46227;-58
2023/05/14 09:05:28;;;;;;;;;;;20.30;61.00;;;;;;4935307;28;45635;-61
2023/05/14 09:07:53;;;;;;;;;;;20.30;61.10;;;;;;4924162;28;45831;-58
2023/05/14 09:10:19;;;;;;;;;;;20.30;61.20;;;;;;4935422;28;47147;-60
2023/05/14 09:12:45;;;;;;;;;;;20.30;61.00;;;;;;4933698;28;46884;-60
2023/05/14 09:15:11;;;;;;;;;;;20.30;61.00;;;;;;4937906;28;45680;-58
2023/05/14 09:17:37;;;;;;;;;;;20.30;61.00;;;;;;4938274;28;45608;-58
2023/05/14 09:20:03;;;;;;;;;;;20.30;61.00;;;;;;4943034;28;45864;-60
2023/05/14 09:22:31;;;;;;;;;;;20.30;61.10;;;;;;4906475;28;45885;-58
2023/05/14 09:25:06;;;;;;;;;;;20.30;61.10;;;;;;4946976;28;45773;-58
2023/05/14 09:27:31;;;;;;;;;;;20.30;61.00;;;;;;4907102;28;44957;-57
2023/05/14 09:30:15;;;;;;;;;;;20.30;61.20;;;;;;4946386;28;45400;-59
2023/05/14 09:32:49;;;;;;;;;;;20.30;61.10;;;;;;4922505;28;45836;-59
2023/05/14 09:35:16;;;;;;;;;;;20.30;61.10;;;;;;4922497;28;44780;-58
2023/05/14 09:37:45;;;;;;;;;;;20.30;61.40;;;;;;4940787;28;47954;-58
2023/05/14 09:40:11;;;;;;;;;;;20.30;61.20;;;;;;4940457;28;45442;-59
2023/05/14 09:42:36;;;;;;;;;;;20.30;61.20;;;;;;4943224;28;45323;-58
2023/05/14 09:45:05;;;;;;;;;;;20.30;61.10;;;;;;4947216;28;45344;-60
2023/05/14 09:47:31;;;;;;;;;;;20.30;61.30;;;;;;4905569;28;45541;-58
2023/05/14 09:49:57;;;;;;;;;;;20.30;61.10;;;;;;4928261;28;46088;-57
2023/05/14 09:52:22;;;;;;;;;;;20.30;61.00;;;;;;4940208;28;45295;-58
2023/05/14 09:54:48;;;;;;;;;;;20.30;61.00;;;;;;4947010;28;46336;-56
2023/05/14 09:57:14;;;;;;;;;;;20.30;61.10;;;;;;4943827;28;45435;-59
2023/05/14 09:59:39;;;;;;;;;;;20.30;61.00;;;;;;4944900;28;46225;-58
2023/05/14 10:02:05;;;;;;;;;;;20.30;61.00;;;;;;4936007;28;45663;-60
2023/05/14 10:04:31;;;;;;;;;;;20.30;61.00;;;;;;4928270;28;45191;-58
2023/05/14 10:06:57;;;;;;;;;;;20.30;61.10;;;;;;4922927;28;45275;-59
2023/05/14 10:09:25;;;;;;;;;;;20.30;61.10;;;;;;4942774;28;47676;-58
2023/05/14 10:11:51;;;;;;;;;;;20.30;61.00;;;;;;4941779;28;45311;-60
2023/05/14 10:14:23;;;;;;;;;;;20.30;61.10;;;;;;4925322;28;45408;-59
2023/05/14 10:16:49;;;;;;;;;;;20.30;61.00;;;;;;4937200;28;45562;-57
2023/05/14 10:19:16;;;;;;;;;;;20.30;61.00;;;;;;4948009;28;46338;-57
2023/05/14 10:21:44;;;;;;;;;;;20.40;60.90;;;;;;4927406;28;45683;-59
2023/05/14 10:24:09;;;;;;;;;;;20.50;61.00;;;;;;4933267;28;45280;-57
2023/05/14 10:26:39;;;;;;;;;;;20.40;60.90;;;;;;4924379;28;45408;-58
2023/05/14 10:29:05;;;;;;;;;;;20.40;60.90;;;;;;4934250;28;47153;-58
2023/05/14 10:31:47;;;;;;;;;;;20.40;60.90;;;;;;4939176;28;45774;-59
2023/05/14 10:34:32;;;;;;;;;;;20.40;60.90;;;;;;4949135;28;45599;-58
2023/05/14 10:36:58;;;;;;;;;;;20.40;60.90;;;;;;4943768;28;44753;-59
2023/05/14 10:39:34;;;;;;;;;;;20.40;60.90;;;;;;4945043;28;47184;-57
2023/05/14 10:42:00;;;;;;;;;;;20.40;60.90;;;;;;4947047;28;45388;-59
2023/05/14 10:44:25;;;;;;;;;;;20.40;61.00;;;;;;4950470;28;45251;-60
2023/05/14 10:46:51;;;;;;;;;;;20.40;61.00;;;;;;4939108;28;45248;-58
2023/05/14 10:49:17;;;;;;;;;;;20.40;61.00;;;;;;4946908;28;46054;-59
2023/05/14 10:51:43;;;;;;;;;;;20.40;61.00;;;;;;4941453;28;45316;-59
2023/05/14 10:54:09;;;;;;;;;;;20.40;61.10;;;;;;4931476;28;45886;-59
2023/05/14 10:56:34;;;;;;;;;;;20.40;61.00;;;;;;4924460;28;45492;-57
2023/05/14 10:59:00;;;;;;;;;;;20.40;61.70;;;;;;4930518;28;47096;-59
2023/05/14 11:01:26;;;;;;;;;;;20.40;61.00;;;;;;4938837;28;45742;-59
2023/05/14 11:03:51;;;;;;;;;;;20.40;61.10;;;;;;4947790;28;45276;-58
2023/05/14 11:06:17;;;;;;;;;;;20.40;61.00;;;;;;4924448;28;45749;-58
2023/05/14 11:08:42;;;;;;;;;;;20.50;61.00;;;;;;4919052;28;45927;-58
2023/05/14 11:11:08;;;;;;;;;;;20.50;61.00;;;;;;4930871;28;45971;-59
2023/05/14 11:13:33;;;;;;;;;;;20.40;60.80;;;;;;4935835;28;45780;-59
2023/05/14 11:15:59;;;;;;;;;;;20.50;60.80;;;;;;4922928;28;45586;-59
2023/05/14 11:18:26;;;;;;;;;;;20.30;60.60;;;;;;4931279;28;45847;-60
2023/05/14 11:20:52;;;;;;;;;;;20.40;60.50;;;;;;4927785;28;45710;-58
2023/05/14 11:23:17;;;;;;;;;;;20.40;60.50;;;;;;4931618;28;45949;-57
2023/05/14 11:25:43;;;;;;;;;;;20.40;60.50;;;;;;4926302;28;46323;-58
2023/05/14 11:28:08;;;;;;;;;;;20.40;60.50;;;;;;4925112;28;45701;-59
2023/05/14 11:30:34;;;;;;;;;;;20.40;60.50;;;;;;4898495;28;45563;-57
2023/05/14 11:32:59;;;;;;;;;;;20.40;60.40;;;;;;4925767;28;45504;-59
2023/05/14 11:35:25;;;;;;;;;;;20.40;60.40;;;;;;4921870;28;45282;-59
2023/05/14 11:37:53;;;;;;;;;;;20.40;60.20;;;;;;4927809;28;45551;-59
2023/05/14 11:40:19;;;;;;;;;;;20.40;59.90;;;;;;4931032;28;45290;-59
2023/05/14 11:42:44;;;;;;;;;;;20.50;60.00;;;;;;4912616;28;46451;-58
2023/05/14 11:45:11;;;;;;;;;;;20.50;59.80;;;;;;4917096;28;46297;-58
2023/05/14 11:47:36;;;;;;;;;;;20.40;59.70;;;;;;4894133;28;47178;-59
2023/05/14 11:50:08;;;;;;;;;;;20.50;59.50;;;;;;4920463;28;45899;-59
2023/05/14 11:52:37;;;;;;;;;;;20.40;59.40;;;;;;4932725;28;45750;-58
2023/05/14 11:55:03;;;;;;;;;;;20.50;59.60;;;;;;4932740;28;45852;-61
2023/05/14 11:57:29;;;;;;;;;;;20.50;59.20;;;;;;4902964;28;47589;-60
2023/05/14 11:59:57;;;;;;;;;;;20.50;59.30;;;;;;4935889;28;46033;-59
2023/05/14 12:02:23;;;;;;;;;;;20.50;59.30;;;;;;4909287;28;45716;-60
2023/05/14 12:04:50;;;;;;;;;;;20.50;59.40;;;;;;4916310;28;45728;-60
2023/05/14 12:07:16;;;;;;;;;;;20.50;59.40;;;;;;4912167;28;46182;-57
2023/05/14 12:09:47;;;;;;;;;;;20.50;59.40;;;;;;4903773;28;45318;-58
2023/05/14 12:12:13;;;;;;;;;;;20.60;59.50;;;;;;4917534;28;46198;-59
2023/05/14 12:14:40;;;;;;;;;;;20.60;59.30;;;;;;4935138;28;45527;-60
2023/05/14 12:17:10;;;;;;;;;;;20.60;59.00;;;;;;4907553;28;46441;-59
2023/05/14 12:19:38;;;;;;;;;;;20.60;58.50;;;;;;4926398;28;46785;-59
2023/05/14 12:22:03;;;;;;;;;;;20.60;58.50;;;;;;4924719;28;46040;-59
2023/05/14 12:24:29;;;;;;;;;;;20.50;58.40;;;;;;4932652;28;45486;-60
2023/05/14 12:26:56;;;;;;;;;;;20.60;58.30;;;;;;4910116;28;46304;-59
2023/05/14 12:29:21;;;;;;;;;;;20.50;58.40;;;;;;4933137;28;45811;-59
2023/05/14 12:31:48;;;;;;;;;;;20.50;58.30;;;;;;4893131;28;46621;-59
2023/05/14 12:34:14;;;;;;;;;;;20.60;58.40;;;;;;4932874;28;45807;-60
2023/05/14 12:36:39;;;;;;;;;;;20.60;58.30;;;;;;4929046;28;46193;-60
2023/05/14 12:39:04;;;;;;;;;;;20.60;58.40;;;;;;4933462;28;46222;-59
2023/05/14 12:41:30;;;;;;;;;;;20.60;58.40;;;;;;4913076;28;45737;-60
2023/05/14 12:43:55;;;;;;;;;;;20.60;58.40;;;;;;4912944;28;45365;-60
2023/05/14 12:46:21;;;;;;;;;;;20.60;58.40;;;;;;4929066;28;45161;-59
2023/05/14 12:48:47;;;;;;;;;;;20.60;58.50;;;;;;4939712;28;45540;-60
2023/05/14 12:51:12;;;;;;;;;;;20.60;58.00;;;;;;4915539;28;45388;-59
2023/05/14 12:53:38;;;;;;;;;;;20.60;58.50;;;;;;4939599;28;46669;-59
2023/05/14 12:56:03;;;;;;;;;;;20.60;58.20;;;;;;4924288;28;48078;-59
2023/05/14 12:58:29;;;;;;;;;;;20.60;58.20;;;;;;4946975;28;45345;-60
2023/05/14 13:01:03;;;;;;;;;;;20.70;58.30;;;;;;5082058;27;45303;-59
2023/05/14 13:03:29;;;;;;;;;;;20.70;58.20;;;;;;5090808;27;45433;-61
2023/05/14 13:05:54;;;;;;;;;;;20.70;58.10;;;;;;5085767;27;45728;-60
2023/05/14 13:08:23;;;;;;;;;;;20.70;58.10;;;;;;5092002;27;45502;-60
2023/05/14 13:10:52;;;;;;;;;;;20.70;57.90;;;;;;5082382;27;45810;-60
2023/05/14 13:13:17;;;;;;;;;;;20.70;57.90;;;;;;5092960;27;45607;-58
2023/05/14 13:15:45;;;;;;;;;;;20.70;57.70;;;;;;5085013;27;45172;-58
2023/05/14 13:18:14;;;;;;;;;;;20.70;57.60;;;;;;5090274;27;45598;-56
2023/05/14 13:20:39;;;;;;;;;;;20.70;57.60;;;;;;5084749;27;45729;-58
2023/05/14 13:23:05;;;;;;;;;;;20.80;57.70;;;;;;5096559;27;45379;-58
2023/05/14 13:25:30;;;;;;;;;;;20.80;57.70;;;;;;5090579;27;46153;-60
2023/05/14 13:27:56;;;;;;;;;;;20.70;57.80;;;;;;5094343;27;45756;-58
2023/05/14 13:30:21;;;;;;;;;;;20.70;57.80;;;;;;5085434;27;46333;-57
2023/05/14 13:32:47;;;;;;;;;;;20.80;57.80;;;;;;5091660;27;45651;-58
2023/05/14 13:35:12;;;;;;;;;;;20.80;57.80;;;;;;5089817;27;45038;-59
2023/05/14 13:37:38;;;;;;;;;;;20.70;57.70;;;;;;5063930;27;45440;-58
2023/05/14 13:40:05;;;;;;;;;;;20.70;57.70;;;;;;5092838;27;45527;-61
2023/05/14 13:42:31;;;;;;;;;;;20.80;57.80;;;;;;5093662;27;45638;-59
2023/05/14 13:44:57;;;;;;;;;;;20.70;57.60;;;;;;5095787;27;45020;-59
2023/05/14 13:47:23;;;;;;;;;;;20.70;57.80;;;;;;5079905;27;45615;-58
2023/05/14 13:49:49;;;;;;;;;;;20.70;57.80;;;;;;5096428;27;45849;-58
2023/05/14 13:52:14;;;;;;;;;;;20.70;57.30;;;;;;5088470;27;45839;-60
2023/05/14 13:54:40;;;;;;;;;;;20.70;57.70;;;;;;5092794;27;45244;-57
2023/05/14 13:57:05;;;;;;;;;;;20.80;57.60;;;;;;5088385;27;45865;-59
2023/05/14 13:59:31;;;;;;;;;;;20.80;57.40;;;;;;5095758;27;45395;-58
2023/05/14 14:01:56;;;;;;;;;;;20.80;57.30;;;;;;5078782;27;45854;-59
2023/05/14 14:04:24;;;;;;;;;;;20.80;57.20;;;;;;5092844;27;44750;-59
2023/05/14 14:06:49;;;;;;;;;;;20.80;57.20;;;;;;5087811;27;46330;-59
2023/05/14 14:09:15;;;;;;;;;;;20.90;57.10;;;;;;5095052;27;46744;-58
2023/05/14 14:11:40;;;;;;;;;;;20.90;57.10;;;;;;5077634;27;45342;-59
2023/05/14 14:14:06;;;;;;;;;;;20.90;57.20;;;;;;5080832;27;45672;-59
2023/05/14 14:16:31;;;;;;;;;;;20.90;57.00;;;;;;5070372;27;45703;-59
2023/05/14 14:18:57;;;;;;;;;;;20.90;57.00;;;;;;5077915;27;46201;-59
2023/05/14 14:21:22;;;;;;;;;;;20.90;57.10;;;;;;5075118;27;46094;-59
2023/05/14 14:23:48;;;;;;;;;;;20.90;57.20;;;;;;5079409;27;45556;-58
2023/05/14 14:26:13;;;;;;;;;;;20.90;57.30;;;;;;5077316;27;46682;-59
2023/05/14 14:28:39;;;;;;;;;;;20.90;57.20;;;;;;5077344;27;46126;-58
2023/05/14 14:31:05;;;;;;;;;;;20.90;57.20;;;;;;5069855;27;45746;-59
2023/05/14 14:33:30;;;;;;;;;;;20.90;57.10;;;;;;5077281;27;45861;-59
2023/05/14 14:35:56;;;;;;;;;;;20.90;57.10;;;;;;5070579;27;45729;-59
2023/05/14 14:38:21;;;;;;;;;;;20.90;57.00;;;;;;5080746;27;46120;-58
2023/05/14 14:40:47;;;;;;;;;;;20.90;56.80;;;;;;5073176;27;46146;-60
2023/05/14 14:43:12;;;;;;;;;;;20.90;56.90;;;;;;5080768;27;45425;-59
2023/05/14 14:45:37;;;;;;;;;;;20.90;57.00;;;;;;5073233;27;44927;-59
2023/05/14 14:48:21;;;;;;;;;;;20.90;57.00;;;;;;5077261;27;46133;-59
2023/05/14 14:50:47;;;;;;;;;;;20.90;57.00;;;;;;5073621;27;45231;-59
2023/05/14 14:53:12;;;;;;;;;;;20.90;57.10;;;;;;5080729;27;45318;-59
2023/05/14 14:55:38;;;;;;;;;;;20.90;57.10;;;;;;5074483;27;46087;-58
2023/05/14 14:58:03;;;;;;;;;;;20.90;57.00;;;;;;5081449;27;46016;-59
2023/05/14 15:00:28;;;;;;;;;;;20.90;57.10;;;;;;5086643;27;45397;-58
2023/05/14 15:02:54;;;;;;;;;;;20.90;57.10;;;;;;5098232;27;45618;-59
2023/05/14 15:05:20;;;;;;;;;;;20.90;57.20;;;;;;5092546;27;45868;-58
2023/05/14 15:07:45;;;;;;;;;;;20.90;57.20;;;;;;5098600;27;46169;-60
2023/05/14 15:10:11;;;;;;;;;;;20.90;57.30;;;;;;5095687;27;45623;-59
2023/05/14 15:12:36;;;;;;;;;;;20.90;57.20;;;;;;5081096;27;45575;-58
2023/05/14 15:15:11;;;;;;;;;;;20.90;57.60;;;;;;5072680;27;45747;-59
2023/05/14 15:17:37;;;;;;;;;;;20.90;57.30;;;;;;5096234;27;45375;-60
2023/05/14 15:20:09;;;;;;;;;;;20.90;57.40;;;;;;5070327;27;46163;-61
2023/05/14 15:22:34;;;;;;;;;;;20.90;57.30;;;;;;5097743;27;45358;-58
2023/05/14 15:24:59;;;;;;;;;;;20.90;57.20;;;;;;5070772;27;45774;-59
2023/05/14 15:27:25;;;;;;;;;;;20.90;57.10;;;;;;5089651;27;45934;-59
2023/05/14 15:29:51;;;;;;;;;;;20.90;57.00;;;;;;5079716;27;46086;-59
2023/05/14 15:32:16;;;;;;;;;;;20.90;57.00;;;;;;5087688;27;45358;-60
2023/05/14 15:34:42;;;;;;;;;;;20.90;57.10;;;;;;5099102;27;45084;-59
2023/05/14 15:37:07;;;;;;;;;;;20.90;57.30;;;;;;5089398;27;46229;-58
2023/05/14 15:39:33;;;;;;;;;;;20.80;57.40;;;;;;5098061;27;45260;-58
2023/05/14 15:41:58;;;;;;;;;;;20.80;57.30;;;;;;5092641;27;45379;-58
2023/05/14 15:44:24;;;;;;;;;;;20.80;58.00;;;;;;5097823;27;45635;-59
2023/05/14 15:46:50;;;;;;;;;;;20.80;57.40;;;;;;5086072;27;46094;-58
2023/05/14 15:49:15;;;;;;;;;;;20.80;57.40;;;;;;5079585;27;45496;-60
2023/05/14 15:51:41;;;;;;;;;;;20.80;57.40;;;;;;5082251;27;46006;-60
2023/05/14 15:54:06;;;;;;;;;;;20.80;57.10;;;;;;5095044;27;44876;-58
2023/05/14 15:56:32;;;;;;;;;;;20.80;57.40;;;;;;5072922;27;46826;-59
2023/05/14 15:58:57;;;;;;;;;;;20.80;57.50;;;;;;5096826;27;45406;-58
2023/05/14 16:01:23;;;;;;;;;;;20.80;57.50;;;;;;5084938;27;46652;-58
2023/05/14 16:03:48;;;;;;;;;;;20.90;57.60;;;;;;5096261;27;45303;-58
2023/05/14 16:06:14;;;;;;;;;;;20.90;57.70;;;;;;5085322;27;45892;-58
2023/05/14 16:08:39;;;;;;;;;;;20.90;57.70;;;;;;5094839;27;45401;-58
2023/05/14 16:11:06;;;;;;;;;;;20.90;58.20;;;;;;5071295;27;45470;-57
2023/05/14 16:13:32;;;;;;;;;;;20.90;57.70;;;;;;5112129;27;46955;-58
2023/05/14 16:15:58;;;;;;;;;;;20.90;57.90;;;;;;5086184;27;45847;-58
2023/05/14 16:18:24;;;;;;;;;;;20.80;57.80;;;;;;5086895;27;44671;-58
2023/05/14 16:20:49;;;;;;;;;;;20.90;57.80;;;;;;5110301;27;45534;-58
2023/05/14 16:23:15;;;;;;;;;;;20.90;57.70;;;;;;5117087;27;45391;-58
2023/05/14 16:25:40;;;;;;;;;;;20.80;57.70;;;;;;5093474;27;45128;-60
2023/05/14 16:28:06;;;;;;;;;;;20.80;57.80;;;;;;5116090;27;45168;-59
2023/05/14 16:30:32;;;;;;;;;;;20.80;57.80;;;;;;5097847;27;46243;-59
2023/05/14 16:32:57;;;;;;;;;;;20.80;57.90;;;;;;5103907;27;46247;-58
2023/05/14 16:35:23;;;;;;;;;;;20.80;58.10;;;;;;5103527;27;47497;-59
2023/05/14 16:37:48;;;;;;;;;;;20.80;57.90;;;;;;5106388;27;45627;-59
2023/05/14 16:40:14;;;;;;;;;;;20.80;57.90;;;;;;5086097;27;46367;-58
2023/05/14 16:42:40;;;;;;;;;;;20.80;57.90;;;;;;5105209;27;46236;-60
2023/05/14 16:45:06;;;;;;;;;;;20.80;58.00;;;;;;5103920;27;46242;-60
2023/05/14 16:47:32;;;;;;;;;;;20.80;57.90;;;;;;5053036;27;46738;-59
2023/05/14 16:49:57;;;;;;;;;;;20.80;57.90;;;;;;5109271;27;45278;-59
2023/05/14 16:52:22;;;;;;;;;;;20.80;57.90;;;;;;5086384;27;45370;-59
2023/05/14 16:54:48;;;;;;;;;;;20.80;57.90;;;;;;5105376;27;46857;-57
2023/05/14 16:57:13;;;;;;;;;;;20.80;57.80;;;;;;5086152;27;45589;-59
2023/05/14 16:59:39;;;;;;;;;;;20.80;57.60;;;;;;5102669;27;45401;-59
2023/05/14 17:02:05;;;;;;;;;;;20.80;57.70;;;;;;5107102;27;45424;-57
2023/05/14 17:04:31;;;;;;;;;;;20.80;57.70;;;;;;5113196;27;46041;-59
2023/05/14 17:06:57;;;;;;;;;;;20.80;57.90;;;;;;5104172;27;45720;-57
2023/05/14 17:09:22;;;;;;;;;;;20.80;57.90;;;;;;5099811;27;46641;-57